Time;durP1;ratioP1;P1;durP2;ratioP2;P2;SDS_P1;SDS_P2;PMS_P1;PMS_P2;Temp;Humidity;BMP_temperature;BMP_pressure;BME280_temperature;BME280_humidity;BME280_pressure;Samples;Min_cycle;Max_cycle;Signal;HPM_P1;HPM_P2
2023/07/24 00:02:14;;;;;;;1.52;1.15;;;;;;;;;;5004577;28;20042;-63
2023/07/24 00:04:39;;;;;;;2.55;0.77;;;;;;;;;;5016169;28;20060;-63
2023/07/24 00:07:05;;;;;;;1.67;1.13;;;;;;;;;;5025260;28;20067;-63
2023/07/24 00:09:30;;;;;;;1.58;0.90;;;;;;;;;;5023419;28;20037;-63
2023/07/24 00:11:55;;;;;;;1.88;1.05;;;;;;;;;;5021247;28;20498;-63
2023/07/24 00:14:21;;;;;;;2.13;1.13;;;;;;;;;;5019564;28;20140;-63
2023/07/24 00:16:46;;;;;;;2.72;1.00;;;;;;;;;;5008655;28;20044;-61
2023/07/24 00:19:12;;;;;;;1.75;0.90;;;;;;;;;;5014400;28;20091;-63
2023/07/24 00:21:37;;;;;;;2.38;1.20;;;;;;;;;;5030564;28;20052;-65
2023/07/24 00:24:02;;;;;;;1.65;0.82;;;;;;;;;;5027727;28;20124;-63
2023/07/24 00:26:28;;;;;;;1.95;1.00;;;;;;;;;;5018745;28;20375;-63
2023/07/24 00:28:53;;;;;;;1.40;0.90;;;;;;;;;;5028144;28;20068;-63
2023/07/24 00:31:18;;;;;;;2.17;1.20;;;;;;;;;;5013245;28;20038;-63
2023/07/24 00:33:44;;;;;;;2.42;1.25;;;;;;;;;;5024847;28;20683;-63
2023/07/24 00:36:09;;;;;;;1.42;1.08;;;;;;;;;;5021174;28;20048;-65
2023/07/24 00:38:34;;;;;;;1.05;0.75;;;;;;;;;;5028864;28;20037;-63
2023/07/24 00:41:00;;;;;;;1.95;1.20;;;;;;;;;;5023908;28;20030;-63
2023/07/24 00:43:25;;;;;;;1.63;1.05;;;;;;;;;;5018780;28;20047;-63
2023/07/24 00:45:51;;;;;;;1.20;0.80;;;;;;;;;;4999281;28;20116;-63
2023/07/24 00:48:16;;;;;;;0.70;0.60;;;;;;;;;;5023554;28;20052;-65
2023/07/24 00:50:44;;;;;;;1.25;0.85;;;;;;;;;;5021645;28;20096;-63
2023/07/24 00:53:12;;;;;;;1.90;1.10;;;;;;;;;;5021549;28;20037;-63
2023/07/24 00:55:38;;;;;;;1.65;0.90;;;;;;;;;;5023515;28;20086;-63
2023/07/24 00:58:04;;;;;;;1.77;1.00;;;;;;;;;;4989548;28;20037;-63
2023/07/24 01:00:30;;;;;;;1.15;0.80;;;;;;;;;;5016861;28;20164;-64
2023/07/24 01:02:56;;;;;;;3.25;1.35;;;;;;;;;;5016234;28;20075;-63
2023/07/24 01:05:24;;;;;;;2.13;0.93;;;;;;;;;;5030350;28;20100;-63
2023/07/24 01:07:50;;;;;;;2.03;1.10;;;;;;;;;;5028575;28;20073;-65
2023/07/24 01:10:16;;;;;;;2.13;1.05;;;;;;;;;;5021701;28;20068;-66
2023/07/24 01:13:15;;;;;;;1.30;0.77;;;;;;;;;;5014185;28;20462;-63
2023/07/24 01:16:02;;;;;;;2.10;1.10;;;;;;;;;;5014934;28;20077;-63
2023/07/24 01:18:30;;;;;;;1.98;0.95;;;;;;;;;;5006038;28;20045;-66
2023/07/24 01:20:58;;;;;;;3.38;1.08;;;;;;;;;;5012958;28;20047;-64
2023/07/24 01:23:44;;;;;;;1.80;1.13;;;;;;;;;;5023593;28;20032;-63
2023/07/24 01:26:09;;;;;;;1.80;1.15;;;;;;;;;;5015870;28;20040;-66
2023/07/24 01:28:35;;;;;;;1.25;0.90;;;;;;;;;;5017239;28;20044;-63
2023/07/24 01:31:00;;;;;;;2.03;1.33;;;;;;;;;;5019714;28;20807;-63
2023/07/24 01:33:26;;;;;;;2.30;1.15;;;;;;;;;;5007261;28;20413;-63
2023/07/24 01:35:59;;;;;;;2.25;1.10;;;;;;;;;;5021458;28;20045;-65
2023/07/24 01:38:26;;;;;;;1.33;0.75;;;;;;;;;;5018898;28;20051;-63
2023/07/24 01:40:54;;;;;;;1.58;0.98;;;;;;;;;;5003567;28;20059;-65
2023/07/24 01:43:20;;;;;;;2.70;0.98;;;;;;;;;;5024202;28;20046;-65
2023/07/24 01:45:45;;;;;;;2.17;0.82;;;;;;;;;;5000570;28;20038;-65
2023/07/24 01:48:10;;;;;;;2.35;1.02;;;;;;;;;;5018421;28;20048;-65
2023/07/24 01:50:36;;;;;;;2.83;1.40;;;;;;;;;;5020622;28;20106;-65
2023/07/24 01:53:01;;;;;;;1.85;1.10;;;;;;;;;;5008375;28;20059;-64
2023/07/24 01:55:27;;;;;;;1.67;1.00;;;;;;;;;;5021603;28;20391;-66
2023/07/24 01:57:52;;;;;;;1.33;0.95;;;;;;;;;;5020474;28;20045;-65
2023/07/24 02:00:18;;;;;;;1.90;0.98;;;;;;;;;;5012495;28;20071;-65
2023/07/24 02:02:43;;;;;;;1.63;1.10;;;;;;;;;;5018208;28;20049;-64
2023/07/24 02:05:08;;;;;;;1.08;0.77;;;;;;;;;;5017916;28;20121;-65
2023/07/24 02:07:34;;;;;;;1.33;0.95;;;;;;;;;;5026228;28;20041;-65
2023/07/24 02:09:59;;;;;;;1.17;0.85;;;;;;;;;;5021306;28;20654;-65
2023/07/24 02:12:25;;;;;;;1.38;1.05;;;;;;;;;;5019509;28;20043;-65
2023/07/24 02:14:51;;;;;;;2.22;1.08;;;;;;;;;;5003263;28;20537;-65
2023/07/24 02:17:18;;;;;;;1.75;1.10;;;;;;;;;;5009413;28;20044;-65
2023/07/24 02:19:44;;;;;;;2.65;1.13;;;;;;;;;;5022344;28;20064;-65
2023/07/24 02:22:09;;;;;;;2.13;1.20;;;;;;;;;;5025529;28;20033;-64
2023/07/24 02:24:35;;;;;;;1.48;0.85;;;;;;;;;;5010353;28;20671;-65
2023/07/24 02:27:01;;;;;;;1.55;0.93;;;;;;;;;;5001145;28;20031;-64
2023/07/24 02:29:26;;;;;;;2.17;1.13;;;;;;;;;;5009792;28;20371;-65
2023/07/24 02:31:53;;;;;;;1.50;1.10;;;;;;;;;;5028764;28;20507;-64
2023/07/24 02:34:19;;;;;;;1.92;1.27;;;;;;;;;;5022926;28;20033;-65
2023/07/24 02:36:44;;;;;;;3.38;1.27;;;;;;;;;;5022681;28;20657;-65
2023/07/24 02:39:09;;;;;;;2.03;0.85;;;;;;;;;;5023172;28;20033;-65
2023/07/24 02:41:35;;;;;;;2.80;1.25;;;;;;;;;;5018948;28;20029;-64
2023/07/24 02:44:02;;;;;;;1.75;1.00;;;;;;;;;;4991017;28;20716;-64
2023/07/24 02:46:30;;;;;;;2.10;1.30;;;;;;;;;;5004666;28;20045;-65
2023/07/24 02:48:56;;;;;;;3.33;1.45;;;;;;;;;;5019589;28;20037;-65
2023/07/24 02:51:21;;;;;;;1.90;1.08;;;;;;;;;;5022417;28;20037;-65
2023/07/24 02:53:46;;;;;;;3.45;1.30;;;;;;;;;;5023321;28;20044;-65
2023/07/24 02:56:12;;;;;;;2.50;1.23;;;;;;;;;;5016125;28;20043;-65
2023/07/24 02:58:37;;;;;;;2.25;1.20;;;;;;;;;;5009976;28;20044;-65
2023/07/24 03:01:07;;;;;;;2.85;1.30;;;;;;;;;;5010997;28;20041;-65
2023/07/24 03:03:33;;;;;;;3.10;1.20;;;;;;;;;;5023140;28;20099;-64
2023/07/24 03:05:58;;;;;;;3.40;0.80;;;;;;;;;;5025458;28;20045;-64
2023/07/24 03:08:24;;;;;;;5.20;1.33;;;;;;;;;;5021181;28;20030;-65
2023/07/24 03:10:49;;;;;;;1.80;0.80;;;;;;;;;;5007629;28;20036;-65
2023/07/24 03:13:15;;;;;;;3.60;1.25;;;;;;;;;;5021485;28;20037;-64
2023/07/24 03:15:40;;;;;;;2.35;1.15;;;;;;;;;;5021438;28;20037;-65
2023/07/24 03:18:05;;;;;;;1.98;1.17;;;;;;;;;;5018909;28;20037;-63
2023/07/24 03:20:31;;;;;;;2.10;1.02;;;;;;;;;;5021750;28;20436;-65
2023/07/24 03:22:56;;;;;;;2.30;1.10;;;;;;;;;;5017689;28;20037;-65
2023/07/24 03:25:22;;;;;;;3.03;1.52;;;;;;;;;;4991264;28;20025;-65
2023/07/24 03:27:47;;;;;;;3.08;1.40;;;;;;;;;;4997777;28;20170;-65
2023/07/24 03:30:13;;;;;;;3.75;1.20;;;;;;;;;;4997386;28;20039;-64
2023/07/24 03:32:38;;;;;;;2.88;1.40;;;;;;;;;;5021556;28;20040;-64
2023/07/24 03:35:07;;;;;;;2.17;1.40;;;;;;;;;;5021325;28;20075;-65
2023/07/24 03:37:35;;;;;;;1.92;1.30;;;;;;;;;;5023903;28;20123;-63
2023/07/24 03:40:01;;;;;;;2.20;1.45;;;;;;;;;;5008802;28;20458;-63
2023/07/24 03:42:28;;;;;;;2.60;1.33;;;;;;;;;;5012519;28;20065;-64
2023/07/24 03:44:53;;;;;;;1.85;1.33;;;;;;;;;;5000594;28;20033;-64
2023/07/24 03:47:19;;;;;;;2.28;1.33;;;;;;;;;;5022078;28;20049;-64
2023/07/24 03:49:44;;;;;;;2.10;1.00;;;;;;;;;;5023347;28;20080;-64
2023/07/24 03:52:10;;;;;;;2.83;1.45;;;;;;;;;;5011825;28;20573;-63
2023/07/24 03:54:35;;;;;;;2.33;1.25;;;;;;;;;;5020770;28;20045;-63
2023/07/24 03:57:00;;;;;;;3.22;1.02;;;;;;;;;;5022331;28;20065;-62
2023/07/24 03:59:26;;;;;;;2.20;1.27;;;;;;;;;;5020438;28;20131;-64
2023/07/24 04:01:51;;;;;;;1.88;1.20;;;;;;;;;;5023637;28;20041;-64
2023/07/24 04:04:16;;;;;;;2.05;1.10;;;;;;;;;;5017324;28;20125;-63
2023/07/24 04:06:42;;;;;;;2.35;1.33;;;;;;;;;;4992238;28;20453;-64
2023/07/24 04:09:07;;;;;;;2.45;1.30;;;;;;;;;;5018784;28;20030;-63
2023/07/24 04:11:33;;;;;;;3.22;1.83;;;;;;;;;;5028663;28;20056;-64
2023/07/24 04:13:58;;;;;;;2.45;1.20;;;;;;;;;;5011329;28;20487;-63
2023/07/24 04:16:23;;;;;;;1.92;1.20;;;;;;;;;;5014204;28;20041;-63
2023/07/24 04:18:49;;;;;;;2.05;1.33;;;;;;;;;;5021876;28;20464;-64
2023/07/24 04:21:14;;;;;;;3.10;1.27;;;;;;;;;;5012883;28;20099;-64
2023/07/24 04:23:39;;;;;;;2.53;1.25;;;;;;;;;;5021592;28;20068;-64
2023/07/24 04:26:05;;;;;;;3.58;1.40;;;;;;;;;;5021849;28;20036;-64
2023/07/24 04:28:30;;;;;;;2.53;1.30;;;;;;;;;;5015822;28;20037;-64
2023/07/24 04:31:00;;;;;;;3.67;1.27;;;;;;;;;;5017795;28;20049;-64
2023/07/24 04:33:27;;;;;;;2.25;1.15;;;;;;;;;;5008529;28;20037;-66
2023/07/24 04:35:53;;;;;;;1.98;1.25;;;;;;;;;;5007404;28;20481;-63
2023/07/24 04:38:19;;;;;;;2.75;1.23;;;;;;;;;;5001747;28;20071;-63
2023/07/24 04:40:45;;;;;;;3.08;1.30;;;;;;;;;;5006946;28;20130;-63
2023/07/24 04:43:10;;;;;;;2.60;1.50;;;;;;;;;;5016995;28;20080;-64
2023/07/24 04:45:36;;;;;;;2.20;1.35;;;;;;;;;;5028277;28;20044;-64
2023/07/24 04:48:01;;;;;;;2.30;1.33;;;;;;;;;;5008196;28;20649;-64
2023/07/24 04:50:26;;;;;;;3.65;1.60;;;;;;;;;;5001540;28;20050;-65
2023/07/24 04:52:52;;;;;;;3.10;1.52;;;;;;;;;;5014219;28;20491;-65
2023/07/24 04:55:17;;;;;;;2.17;1.30;;;;;;;;;;5016341;28;20038;-65
2023/07/24 04:57:42;;;;;;;1.75;1.00;;;;;;;;;;5016043;28;20055;-65
2023/07/24 05:00:08;;;;;;;3.28;1.02;;;;;;;;;;5002881;28;20119;-65
2023/07/24 05:02:34;;;;;;;3.08;1.20;;;;;;;;;;5023736;28;20405;-65
2023/07/24 05:04:59;;;;;;;2.75;1.50;;;;;;;;;;5006987;28;20059;-66
2023/07/24 05:07:24;;;;;;;4.80;1.40;;;;;;;;;;5003508;28;20127;-65
2023/07/24 05:09:50;;;;;;;2.58;1.33;;;;;;;;;;5005872;28;20045;-65
2023/07/24 05:12:15;;;;;;;3.55;1.30;;;;;;;;;;5003195;28;20148;-64
2023/07/24 05:14:41;;;;;;;2.35;1.25;;;;;;;;;;5019950;28;20036;-65
2023/07/24 05:17:06;;;;;;;1.48;0.90;;;;;;;;;;5005509;28;20042;-67
2023/07/24 05:19:31;;;;;;;2.00;1.13;;;;;;;;;;5002937;28;20040;-65
2023/07/24 05:21:57;;;;;;;1.60;0.90;;;;;;;;;;5004660;28;20033;-64
2023/07/24 05:24:22;;;;;;;2.15;1.20;;;;;;;;;;5014257;28;20844;-65
2023/07/24 05:26:47;;;;;;;1.80;1.10;;;;;;;;;;5017279;28;20080;-64
2023/07/24 05:29:13;;;;;;;2.83;1.23;;;;;;;;;;5017718;28;20072;-64
2023/07/24 05:31:38;;;;;;;3.45;1.52;;;;;;;;;;5007773;28;20785;-64
2023/07/24 05:34:05;;;;;;;1.80;0.90;;;;;;;;;;5019499;28;20219;-64
2023/07/24 05:36:30;;;;;;;2.15;1.10;;;;;;;;;;5010813;28;20030;-63
2023/07/24 05:38:56;;;;;;;3.60;1.58;;;;;;;;;;5008696;28;20540;-63
2023/07/24 05:41:21;;;;;;;3.65;1.80;;;;;;;;;;5011015;28;20514;-63
2023/07/24 05:43:47;;;;;;;1.40;0.85;;;;;;;;;;5019607;28;20041;-64
2023/07/24 05:46:12;;;;;;;1.63;0.93;;;;;;;;;;5007119;28;20132;-67
2023/07/24 05:48:38;;;;;;;2.63;1.60;;;;;;;;;;5024166;28;20059;-68
2023/07/24 05:51:03;;;;;;;2.22;1.50;;;;;;;;;;5018619;28;20049;-66
2023/07/24 05:53:28;;;;;;;4.13;1.70;;;;;;;;;;5021001;28;20494;-67
2023/07/24 05:55:59;;;;;;;2.28;1.60;;;;;;;;;;5018674;28;20060;-67
2023/07/24 05:58:25;;;;;;;3.40;1.75;;;;;;;;;;5018432;28;20041;-66
2023/07/24 06:00:50;;;;;;;2.85;1.45;;;;;;;;;;5011334;28;20560;-67
2023/07/24 06:03:16;;;;;;;5.78;1.90;;;;;;;;;;5019988;28;20041;-67
2023/07/24 06:05:41;;;;;;;1.80;1.10;;;;;;;;;;5021638;28;20573;-67
2023/07/24 06:08:08;;;;;;;1.92;1.00;;;;;;;;;;5016862;28;20037;-67
2023/07/24 06:10:34;;;;;;;2.42;1.35;;;;;;;;;;5026551;28;20052;-67
2023/07/24 06:12:59;;;;;;;3.03;1.02;;;;;;;;;;4998003;28;20107;-67
2023/07/24 06:15:25;;;;;;;3.08;1.42;;;;;;;;;;5013962;28;20030;-67
2023/07/24 06:17:50;;;;;;;1.75;1.10;;;;;;;;;;5022857;28;20116;-67
2023/07/24 06:20:16;;;;;;;2.75;1.52;;;;;;;;;;5015286;28;20103;-67
2023/07/24 06:22:41;;;;;;;2.35;1.50;;;;;;;;;;5024728;28;20082;-67
2023/07/24 06:25:07;;;;;;;2.35;1.30;;;;;;;;;;5015320;28;20029;-66
2023/07/24 06:27:32;;;;;;;3.42;1.70;;;;;;;;;;4994547;28;20090;-67
2023/07/24 06:29:58;;;;;;;2.72;1.60;;;;;;;;;;5019083;28;20056;-67
2023/07/24 06:32:23;;;;;;;2.97;1.77;;;;;;;;;;5016009;28;20550;-67
2023/07/24 06:34:49;;;;;;;3.40;1.50;;;;;;;;;;5005370;28;20135;-67
2023/07/24 06:37:14;;;;;;;4.28;2.00;;;;;;;;;;5005931;28;20045;-67
2023/07/24 06:39:39;;;;;;;3.28;1.40;;;;;;;;;;4996985;28;20065;-67
2023/07/24 06:42:05;;;;;;;4.15;2.00;;;;;;;;;;4993801;28;20045;-69
2023/07/24 06:44:30;;;;;;;2.00;0.95;;;;;;;;;;4993342;28;20046;-68
2023/07/24 06:46:56;;;;;;;0.85;0.63;;;;;;;;;;5020293;28;20052;-66
2023/07/24 06:49:21;;;;;;;2.25;1.60;;;;;;;;;;5004677;28;20033;-69
2023/07/24 06:51:46;;;;;;;4.55;2.20;;;;;;;;;;5016229;28;20034;-67
2023/07/24 06:54:12;;;;;;;7.20;2.15;;;;;;;;;;5014847;28;20037;-66
2023/07/24 06:56:37;;;;;;;2.45;1.73;;;;;;;;;;5006162;28;20081;-68
2023/07/24 06:59:03;;;;;;;4.68;2.00;;;;;;;;;;5017885;28;20537;-66
2023/07/24 07:01:28;;;;;;;3.78;1.75;;;;;;;;;;5015631;28;20090;-70
2023/07/24 07:03:53;;;;;;;1.75;0.98;;;;;;;;;;5015853;28;20514;-68
2023/07/24 07:06:19;;;;;;;2.83;1.95;;;;;;;;;;5013486;28;20120;-67
2023/07/24 07:08:44;;;;;;;2.38;1.48;;;;;;;;;;5001610;28;20740;-68
2023/07/24 07:11:10;;;;;;;4.53;2.20;;;;;;;;;;4982403;28;20037;-67
2023/07/24 07:13:35;;;;;;;4.90;1.98;;;;;;;;;;5005135;28;20045;-70
2023/07/24 07:16:00;;;;;;;4.88;2.60;;;;;;;;;;5019447;28;20045;-66
2023/07/24 07:18:26;;;;;;;4.50;2.10;;;;;;;;;;5017801;28;20091;-67
2023/07/24 07:20:53;;;;;;;3.78;1.73;;;;;;;;;;5016893;28;20040;-67
2023/07/24 07:23:19;;;;;;;4.35;2.40;;;;;;;;;;5015619;28;20034;-68
2023/07/24 07:25:47;;;;;;;3.17;2.05;;;;;;;;;;5006818;28;20443;-68
2023/07/24 07:28:16;;;;;;;1.42;0.90;;;;;;;;;;5018207;28;20095;-68
2023/07/24 07:30:42;;;;;;;1.27;0.93;;;;;;;;;;5018944;28;20405;-68
2023/07/24 07:33:08;;;;;;;2.63;1.55;;;;;;;;;;5014724;28;20068;-68
2023/07/24 07:35:34;;;;;;;2.50;1.63;;;;;;;;;;5000540;28;20061;-69
2023/07/24 07:38:00;;;;;;;3.13;1.70;;;;;;;;;;5008509;28;20033;-69
2023/07/24 07:40:26;;;;;;;3.22;1.92;;;;;;;;;;5015272;28;20037;-70
2023/07/24 07:42:53;;;;;;;3.78;2.38;;;;;;;;;;5014431;28;20037;-71
2023/07/24 07:45:18;;;;;;;1.65;1.00;;;;;;;;;;5005606;28;20698;-67
2023/07/24 07:47:44;;;;;;;4.10;2.40;;;;;;;;;;5017389;28;20134;-67
2023/07/24 07:50:09;;;;;;;3.45;1.90;;;;;;;;;;5015199;28;20136;-67
2023/07/24 07:52:35;;;;;;;2.67;1.67;;;;;;;;;;5002131;28;20321;-69
2023/07/24 07:55:00;;;;;;;4.40;2.30;;;;;;;;;;5017178;28;20042;-71
2023/07/24 07:57:26;;;;;;;4.40;2.13;;;;;;;;;;5019766;28;20493;-70
2023/07/24 07:59:51;;;;;;;4.57;2.03;;;;;;;;;;5003908;28;20056;-68
2023/07/24 08:02:16;;;;;;;3.38;1.95;;;;;;;;;;5018957;28;20042;-67
2023/07/24 08:04:42;;;;;;;3.35;2.17;;;;;;;;;;5008861;28;20022;-69
2023/07/24 08:07:07;;;;;;;2.88;1.67;;;;;;;;;;5004590;28;20863;-69
2023/07/24 08:09:33;;;;;;;3.88;2.13;;;;;;;;;;5012545;28;20057;-66
2023/07/24 08:11:59;;;;;;;3.58;1.83;;;;;;;;;;5019103;28;20531;-66
2023/07/24 08:14:24;;;;;;;5.57;2.70;;;;;;;;;;5012546;28;20046;-70
2023/07/24 08:16:50;;;;;;;4.95;2.38;;;;;;;;;;4999994;28;20102;-68
2023/07/24 08:19:15;;;;;;;4.93;2.22;;;;;;;;;;5014577;28;20099;-72
2023/07/24 08:21:41;;;;;;;4.95;2.72;;;;;;;;;;5000117;28;20064;-72
2023/07/24 08:24:07;;;;;;;5.70;3.47;;;;;;;;;;5010983;28;20133;-69
2023/07/24 08:26:33;;;;;;;6.20;2.72;;;;;;;;;;5013120;28;20042;-68
2023/07/24 08:28:58;;;;;;;4.45;2.47;;;;;;;;;;5009762;28;20087;-71
2023/07/24 08:31:24;;;;;;;4.13;2.67;;;;;;;;;;5014357;28;20042;-67
2023/07/24 08:33:49;;;;;;;4.05;2.35;;;;;;;;;;5021464;28;20131;-70
2023/07/24 08:36:15;;;;;;;3.28;1.92;;;;;;;;;;5005458;28;20068;-72
2023/07/24 08:38:42;;;;;;;3.80;2.08;;;;;;;;;;5021301;28;20836;-69
2023/07/24 08:41:12;;;;;;;3.78;2.17;;;;;;;;;;5015618;28;20033;-68
2023/07/24 08:43:40;;;;;;;3.20;1.83;;;;;;;;;;5016440;28;20053;-70
2023/07/24 08:46:06;;;;;;;6.00;2.83;;;;;;;;;;5019232;28;20117;-70
2023/07/24 08:48:40;;;;;;;5.78;3.30;;;;;;;;;;5011006;28;20045;-70
2023/07/24 08:51:07;;;;;;;5.18;2.80;;;;;;;;;;5015869;28;20037;-70
2023/07/24 08:53:37;;;;;;;3.47;2.25;;;;;;;;;;5017667;28;20037;-66
2023/07/24 08:56:04;;;;;;;4.60;2.65;;;;;;;;;;5004543;28;20533;-69
2023/07/24 08:58:29;;;;;;;3.55;2.13;;;;;;;;;;5007960;28;20045;-69
2023/07/24 09:00:59;;;;;;;4.95;2.95;;;;;;;;;;5010655;28;20037;-66
2023/07/24 09:03:24;;;;;;;4.93;2.72;;;;;;;;;;5018080;28;20037;-72
2023/07/24 09:05:50;;;;;;;5.05;2.50;;;;;;;;;;5021538;28;20041;-67
2023/07/24 09:08:15;;;;;;;4.20;2.17;;;;;;;;;;5018087;28;20091;-67
2023/07/24 09:10:41;;;;;;;5.00;2.90;;;;;;;;;;5017386;28;20115;-70
2023/07/24 09:13:07;;;;;;;4.45;2.70;;;;;;;;;;5018387;28;20041;-72
2023/07/24 09:15:43;;;;;;;4.72;2.58;;;;;;;;;;5009879;28;20067;-71
2023/07/24 09:18:09;;;;;;;5.85;3.00;;;;;;;;;;5020482;28;20805;-68
2023/07/24 09:20:42;;;;;;;4.75;2.25;;;;;;;;;;5004725;28;20164;-67
2023/07/24 09:23:09;;;;;;;4.50;2.85;;;;;;;;;;5018558;28;20116;-70
2023/07/24 09:25:35;;;;;;;5.55;3.30;;;;;;;;;;5019619;28;20037;-68
2023/07/24 09:28:01;;;;;;;4.25;2.72;;;;;;;;;;5012101;28;20565;-66
2023/07/24 09:30:26;;;;;;;4.43;2.38;;;;;;;;;;5022976;28;20048;-69
2023/07/24 09:32:54;;;;;;;3.10;1.77;;;;;;;;;;5021517;28;20056;-70
2023/07/24 09:35:25;;;;;;;4.57;2.88;;;;;;;;;;5015830;28;20145;-66
2023/07/24 09:38:01;;;;;;;3.50;2.20;;;;;;;;;;5011204;28;20072;-71
2023/07/24 09:40:26;;;;;;;4.00;2.78;;;;;;;;;;5009157;28;20034;-66
2023/07/24 09:42:51;;;;;;;5.07;3.17;;;;;;;;;;5020558;28;20479;-71
2023/07/24 09:45:17;;;;;;;4.93;2.80;;;;;;;;;;5018712;28;20132;-68
2023/07/24 09:47:43;;;;;;;3.90;2.50;;;;;;;;;;5017922;28;20037;-67
2023/07/24 09:50:09;;;;;;;4.45;3.05;;;;;;;;;;5020238;28;20045;-68
2023/07/24 09:52:37;;;;;;;4.35;2.92;;;;;;;;;;5009541;28;20104;-68
2023/07/24 09:55:11;;;;;;;5.65;3.33;;;;;;;;;;5004897;28;20510;-70
2023/07/24 09:57:37;;;;;;;3.35;2.13;;;;;;;;;;4995097;28;20040;-70
2023/07/24 10:00:04;;;;;;;5.53;3.17;;;;;;;;;;5017013;28;20033;-70
2023/07/24 10:02:30;;;;;;;6.32;3.13;;;;;;;;;;5008656;28;20096;-68
2023/07/24 10:04:56;;;;;;;5.28;2.97;;;;;;;;;;4997828;28;20033;-71
2023/07/24 10:07:22;;;;;;;4.95;3.08;;;;;;;;;;4985549;28;20044;-74
2023/07/24 10:09:50;;;;;;;4.88;3.00;;;;;;;;;;5013345;28;20034;-69
2023/07/24 10:12:17;;;;;;;5.38;3.10;;;;;;;;;;4994896;28;20038;-71
2023/07/24 10:14:44;;;;;;;4.80;2.80;;;;;;;;;;5007576;28;20756;-71
2023/07/24 10:17:10;;;;;;;5.55;3.10;;;;;;;;;;5002775;28;20161;-69
2023/07/24 10:19:37;;;;;;;3.80;2.65;;;;;;;;;;5016587;28;20124;-72
2023/07/24 10:22:03;;;;;;;4.88;2.92;;;;;;;;;;5001041;28;20080;-69
2023/07/24 10:24:33;;;;;;;4.50;2.50;;;;;;;;;;4997841;28;20037;-74
2023/07/24 10:26:58;;;;;;;7.35;3.15;;;;;;;;;;5012635;28;20037;-69
2023/07/24 10:29:25;;;;;;;3.83;2.45;;;;;;;;;;5010771;28;20441;-67
2023/07/24 10:31:54;;;;;;;4.35;2.47;;;;;;;;;;5016499;28;20045;-68
2023/07/24 10:34:20;;;;;;;5.80;3.35;;;;;;;;;;5009273;28;20095;-73
2023/07/24 10:36:46;;;;;;;4.78;3.13;;;;;;;;;;5020496;28;20037;-71
2023/07/24 10:39:16;;;;;;;4.82;3.60;;;;;;;;;;5017516;28;20036;-68
2023/07/24 10:41:44;;;;;;;4.35;3.13;;;;;;;;;;5019345;28;20025;-67
2023/07/24 10:44:09;;;;;;;4.22;2.72;;;;;;;;;;5017918;28;20422;-68
2023/07/24 10:46:38;;;;;;;5.57;3.15;;;;;;;;;;5015587;28;20049;-72
2023/07/24 10:49:04;;;;;;;4.70;2.95;;;;;;;;;;5003441;28;20046;-70
2023/07/24 10:51:33;;;;;;;3.95;2.80;;;;;;;;;;5017678;28;20147;-68
2023/07/24 10:53:59;;;;;;;6.47;3.63;;;;;;;;;;5019528;28;20025;-67
2023/07/24 10:56:24;;;;;;;4.28;3.08;;;;;;;;;;5019830;28;20049;-68
2023/07/24 10:58:50;;;;;;;5.57;3.33;;;;;;;;;;5016929;28;20041;-71
2023/07/24 11:01:17;;;;;;;5.00;3.20;;;;;;;;;;4991089;28;20044;-70
2023/07/24 11:03:43;;;;;;;5.18;3.55;;;;;;;;;;5014967;28;20528;-68
2023/07/24 11:06:14;;;;;;;5.28;3.20;;;;;;;;;;5016179;28;20042;-68
2023/07/24 11:08:40;;;;;;;3.70;2.50;;;;;;;;;;5015033;28;20585;-67
2023/07/24 11:11:05;;;;;;;7.15;2.80;;;;;;;;;;5019068;28;20116;-68
2023/07/24 11:13:31;;;;;;;6.20;3.15;;;;;;;;;;5017508;28;20127;-71
2023/07/24 11:16:04;;;;;;;4.50;2.97;;;;;;;;;;5009733;28;20033;-72
2023/07/24 11:18:30;;;;;;;5.05;2.97;;;;;;;;;;5022656;28;20087;-67
2023/07/24 11:20:56;;;;;;;4.70;2.63;;;;;;;;;;5021876;28;20038;-68
2023/07/24 11:23:22;;;;;;;4.40;2.70;;;;;;;;;;5018996;28;20037;-68
2023/07/24 11:25:52;;;;;;;3.53;1.85;;;;;;;;;;5022551;28;20060;-70
2023/07/24 11:28:18;;;;;;;4.67;2.70;;;;;;;;;;5006337;28;20116;-69
2023/07/24 11:30:43;;;;;;;6.15;3.00;;;;;;;;;;5022852;28;20195;-67
2023/07/24 11:33:11;;;;;;;3.53;2.22;;;;;;;;;;5018336;28;20061;-68
2023/07/24 11:35:40;;;;;;;6.40;3.08;;;;;;;;;;5016701;28;20132;-68
2023/07/24 11:38:08;;;;;;;4.05;2.83;;;;;;;;;;5017262;28;20172;-69
2023/07/24 11:40:44;;;;;;;4.20;2.88;;;;;;;;;;5021959;28;20057;-70
2023/07/24 11:43:26;;;;;;;4.40;2.45;;;;;;;;;;5005264;28;22445;-72
2023/07/24 11:45:53;;;;;;;4.97;3.08;;;;;;;;;;5003173;28;20033;-69
2023/07/24 11:48:23;;;;;;;3.90;2.03;;;;;;;;;;5014210;28;20178;-67
2023/07/24 11:50:54;;;;;;;4.13;2.72;;;;;;;;;;5014821;28;20049;-69
2023/07/24 11:53:25;;;;;;;5.93;2.90;;;;;;;;;;5001394;28;20637;-73
2023/07/24 11:55:52;;;;;;;3.13;1.88;;;;;;;;;;5015555;28;20417;-67
2023/07/24 11:58:18;;;;;;;5.85;3.00;;;;;;;;;;5003948;28;20120;-68
2023/07/24 12:00:46;;;;;;;4.07;2.63;;;;;;;;;;5016737;28;20116;-66
2023/07/24 12:03:11;;;;;;;6.35;3.15;;;;;;;;;;5007458;28;20041;-69
2023/07/24 12:05:41;;;;;;;4.53;2.95;;;;;;;;;;5011463;28;20042;-70
2023/07/24 12:08:07;;;;;;;5.00;2.97;;;;;;;;;;5000386;28;20117;-69
2023/07/24 12:10:38;;;;;;;4.45;2.65;;;;;;;;;;5014856;28;20071;-70
2023/07/24 12:13:04;;;;;;;4.82;3.20;;;;;;;;;;5020608;28;20116;-70
2023/07/24 12:15:29;;;;;;;4.57;2.40;;;;;;;;;;5016894;28;20124;-70
2023/07/24 12:17:56;;;;;;;4.22;2.90;;;;;;;;;;5014853;28;20049;-68
2023/07/24 12:20:22;;;;;;;4.68;2.90;;;;;;;;;;5006311;28;20087;-68
2023/07/24 12:22:48;;;;;;;4.20;2.75;;;;;;;;;;5021131;28;20041;-69
2023/07/24 12:25:13;;;;;;;6.00;3.05;;;;;;;;;;5018512;28;20090;-66
2023/07/24 12:27:41;;;;;;;4.72;2.83;;;;;;;;;;5010068;28;20030;-69
2023/07/24 12:30:07;;;;;;;5.57;3.35;;;;;;;;;;5014482;28;20037;-69
2023/07/24 12:32:32;;;;;;;4.25;2.80;;;;;;;;;;5018802;28;20118;-69
2023/07/24 12:34:57;;;;;;;5.22;3.05;;;;;;;;;;5005565;28;20051;-66
2023/07/24 12:37:23;;;;;;;4.30;2.97;;;;;;;;;;5019012;28;20550;-70
2023/07/24 12:39:49;;;;;;;4.35;3.22;;;;;;;;;;5013474;28;20196;-68
2023/07/24 12:42:15;;;;;;;4.85;3.00;;;;;;;;;;4995673;28;20531;-68
2023/07/24 12:44:42;;;;;;;5.68;3.15;;;;;;;;;;5002622;28;20541;-69
2023/07/24 12:47:08;;;;;;;4.40;2.65;;;;;;;;;;4991330;28;20133;-68
2023/07/24 12:49:33;;;;;;;5.40;3.33;;;;;;;;;;4999548;28;20125;-68
2023/07/24 12:51:59;;;;;;;4.90;3.05;;;;;;;;;;5005393;28;20040;-70
2023/07/24 12:54:24;;;;;;;4.70;3.10;;;;;;;;;;5013340;28;20049;-69
2023/07/24 12:56:50;;;;;;;4.47;2.92;;;;;;;;;;5017068;28;20044;-68
2023/07/24 12:59:18;;;;;;;5.18;3.28;;;;;;;;;;5014567;28;20092;-68
2023/07/24 13:01:44;;;;;;;5.55;3.28;;;;;;;;;;5008133;28;20538;-68
2023/07/24 13:04:10;;;;;;;5.30;3.25;;;;;;;;;;5016263;28;20071;-67
2023/07/24 13:06:36;;;;;;;6.28;3.70;;;;;;;;;;5015869;28;20045;-67
2023/07/24 13:09:02;;;;;;;5.60;3.72;;;;;;;;;;5019484;28;20119;-68
2023/07/24 13:11:28;;;;;;;6.57;4.05;;;;;;;;;;5019339;28;20033;-66
2023/07/24 13:13:54;;;;;;;7.13;4.00;;;;;;;;;;5016361;28;20143;-66
2023/07/24 13:16:20;;;;;;;5.90;4.53;;;;;;;;;;4992187;28;20046;-67
2023/07/24 13:18:45;;;;;;;7.00;4.68;;;;;;;;;;5014409;28;20131;-66
2023/07/24 13:21:11;;;;;;;6.75;4.28;;;;;;;;;;5001630;28;20048;-67
2023/07/24 13:23:36;;;;;;;7.82;4.45;;;;;;;;;;5016247;28;20044;-67
2023/07/24 13:26:02;;;;;;;6.85;4.60;;;;;;;;;;5013752;28;20033;-67
2023/07/24 13:28:29;;;;;;;5.45;4.20;;;;;;;;;;5017751;28;20043;-67
2023/07/24 13:30:55;;;;;;;6.20;3.83;;;;;;;;;;5001563;28;20132;-66
2023/07/24 13:33:22;;;;;;;5.45;4.00;;;;;;;;;;5000586;28;20250;-66
2023/07/24 13:35:47;;;;;;;5.78;3.28;;;;;;;;;;5018460;28;20041;-66
2023/07/24 13:38:14;;;;;;;8.07;4.70;;;;;;;;;;5020094;28;20037;-66
2023/07/24 13:40:39;;;;;;;5.38;3.38;;;;;;;;;;5015129;28;20045;-67
2023/07/24 13:43:05;;;;;;;5.50;3.80;;;;;;;;;;5011371;28;20038;-67
2023/07/24 13:45:30;;;;;;;6.30;4.57;;;;;;;;;;5002933;28;20051;-66
2023/07/24 13:47:57;;;;;;;5.95;4.53;;;;;;;;;;4997782;28;20042;-66
2023/07/24 13:50:22;;;;;;;5.75;3.92;;;;;;;;;;5019517;28;20041;-66
2023/07/24 13:52:47;;;;;;;6.18;4.78;;;;;;;;;;5016710;28;20048;-67
2023/07/24 13:55:14;;;;;;;6.05;4.13;;;;;;;;;;5017604;28;20498;-66
2023/07/24 13:57:39;;;;;;;6.65;3.97;;;;;;;;;;5004088;28;20102;-67
2023/07/24 14:00:05;;;;;;;6.28;4.22;;;;;;;;;;4998809;28;20046;-65
2023/07/24 14:02:31;;;;;;;5.88;4.28;;;;;;;;;;5002547;28;20087;-65
2023/07/24 14:04:56;;;;;;;6.80;4.65;;;;;;;;;;5015558;28;20823;-67
2023/07/24 14:07:22;;;;;;;6.15;4.30;;;;;;;;;;5014940;28;20034;-66
2023/07/24 14:09:47;;;;;;;5.30;4.13;;;;;;;;;;5019065;28;20413;-68
2023/07/24 14:12:13;;;;;;;7.53;3.97;;;;;;;;;;5004621;28;20048;-66
2023/07/24 14:14:38;;;;;;;6.68;4.53;;;;;;;;;;4995182;28;20124;-66
2023/07/24 14:17:04;;;;;;;5.55;3.92;;;;;;;;;;5003726;28;20052;-66
2023/07/24 14:19:29;;;;;;;6.13;3.97;;;;;;;;;;5008684;28;20061;-67
2023/07/24 14:21:55;;;;;;;7.32;4.65;;;;;;;;;;5000461;28;20045;-65
2023/07/24 14:24:20;;;;;;;6.55;4.10;;;;;;;;;;5010686;28;20033;-66
2023/07/24 14:26:46;;;;;;;6.15;4.30;;;;;;;;;;5002477;28;20038;-69
2023/07/24 14:29:11;;;;;;;5.55;3.95;;;;;;;;;;4997523;28;20076;-69
2023/07/24 14:31:37;;;;;;;7.97;4.53;;;;;;;;;;5016693;28;20136;-69
2023/07/24 14:34:03;;;;;;;5.60;4.25;;;;;;;;;;5023220;28;20035;-71
2023/07/24 14:36:33;;;;;;;5.60;3.95;;;;;;;;;;5023400;28;20399;-70
2023/07/24 14:39:00;;;;;;;6.25;3.95;;;;;;;;;;5016891;28;20037;-69